createdAt,value
2022-12-08T00:01:34.018Z,34.90
2022-12-08T00:04:05.710Z,33.60
2022-12-08T00:06:52.895Z,31.42
2022-12-08T00:09:23.379Z,29.35
2022-12-08T00:11:57.262Z,31.35
2022-12-08T00:14:27.781Z,27.90
2022-12-08T00:16:56.599Z,30.17
2022-12-08T00:19:27.164Z,27.55
2022-12-08T00:21:56.001Z,25.55
2022-12-08T00:24:25.846Z,32.10
2022-12-08T00:26:53.940Z,33.00
2022-12-08T00:29:22.129Z,30.63
2022-12-08T00:31:50.298Z,42.35
2022-12-08T00:34:18.531Z,33.35
2022-12-08T00:36:48.264Z,30.00
2022-12-08T00:39:18.515Z,38.35
2022-12-08T00:42:04.073Z,31.83
2022-12-08T00:44:32.167Z,29.02
2022-12-08T00:47:00.357Z,33.95
2022-12-08T00:49:28.450Z,29.50
2022-12-08T00:51:58.012Z,30.20
2022-12-08T00:54:26.451Z,27.20
2022-12-08T00:56:54.643Z,30.67
2022-12-08T00:59:22.885Z,31.92
2022-12-08T01:01:50.962Z,30.27
2022-12-08T01:04:20.767Z,28.27
2022-12-08T01:06:49.754Z,27.33
2022-12-08T01:09:20.137Z,21.75
2022-12-08T01:11:49.386Z,23.98
2022-12-08T01:14:17.591Z,21.40
2022-12-08T01:16:45.809Z,26.02
2022-12-08T01:19:15.297Z,29.35
2022-12-08T01:21:44.322Z,29.02
2022-12-08T01:24:13.770Z,31.60
2022-12-08T01:26:43.599Z,29.50
2022-12-08T01:29:12.263Z,27.02
2022-12-08T01:31:41.112Z,27.40
2022-12-08T01:34:09.867Z,27.60
2022-12-08T01:36:38.591Z,24.50
2022-12-08T01:39:09.138Z,28.60
2022-12-08T01:41:39.224Z,33.17
2022-12-08T01:44:40.674Z,29.35
2022-12-08T01:47:10.912Z,24.00
2022-12-08T01:49:39.160Z,34.30
2022-12-08T01:52:12.319Z,28.77
2022-12-08T01:54:44.517Z,29.27
2022-12-08T01:57:16.920Z,30.27
2022-12-08T01:59:51.255Z,30.25
2022-12-08T02:02:20.878Z,37.13
2022-12-08T02:04:49.060Z,32.75
2022-12-08T02:07:19.090Z,27.58
2022-12-08T02:09:47.816Z,26.10
2022-12-08T02:12:16.494Z,25.75
2022-12-08T02:14:44.798Z,22.33
2022-12-08T02:17:28.634Z,25.90
2022-12-08T02:20:38.728Z,34.22
2022-12-08T02:23:14.611Z,31.70
2022-12-08T02:26:03.191Z,34.17
2022-12-08T02:28:48.048Z,30.88
2022-12-08T02:31:32.352Z,38.60
2022-12-08T02:34:14.253Z,38.92
2022-12-08T02:36:51.238Z,35.83
2022-12-08T02:39:29.794Z,26.63
2022-12-08T02:42:08.278Z,36.03
2022-12-08T02:44:40.861Z,36.67
2022-12-08T02:47:13.845Z,30.23
2022-12-08T02:49:43.450Z,30.63
2022-12-08T02:52:45.092Z,31.45
2022-12-08T02:55:24.197Z,29.77
2022-12-08T02:58:27.528Z,32.28
2022-12-08T03:01:10.486Z,25.27
2022-12-08T03:06:23.451Z,27.38
2022-12-08T03:08:56.829Z,25.98
2022-12-08T03:11:30.478Z,28.10
2022-12-08T03:14:02.452Z,22.85
2022-12-08T03:16:34.020Z,28.38
2022-12-08T03:19:08.243Z,25.95
2022-12-08T03:21:40.398Z,28.55
2022-12-08T03:24:11.294Z,25.92
2022-12-08T03:26:47.046Z,24.25
2022-12-08T03:29:15.625Z,28.00
2022-12-08T03:31:50.641Z,20.77
2022-12-08T03:34:20.040Z,25.55
2022-12-08T03:36:49.548Z,29.08
2022-12-08T03:39:17.663Z,30.13
2022-12-08T03:41:46.861Z,32.17
2022-12-08T03:44:15.064Z,32.72
2022-12-08T03:46:43.147Z,26.85
2022-12-08T03:49:11.562Z,27.98
2022-12-08T03:51:39.692Z,27.70
2022-12-08T03:54:09.231Z,24.95
2022-12-08T03:56:39.500Z,28.02
2022-12-08T03:59:08.799Z,26.95
2022-12-08T04:01:36.947Z,24.17
2022-12-08T04:04:05.468Z,24.70
2022-12-08T04:06:33.622Z,25.70
2022-12-08T04:09:01.695Z,27.05
2022-12-08T04:11:31.217Z,28.90
2022-12-08T04:13:59.330Z,29.33
2022-12-08T04:16:28.669Z,29.58
2022-12-08T04:18:56.831Z,26.75
2022-12-08T04:21:25.016Z,31.27
2022-12-08T04:23:57.661Z,28.27
2022-12-08T04:26:30.707Z,26.73
2022-12-08T04:28:58.803Z,26.10
2022-12-08T04:31:26.965Z,24.25
2022-12-08T04:33:55.105Z,24.20
2022-12-08T04:36:23.204Z,33.13
2022-12-08T04:38:51.599Z,23.98
2022-12-08T04:41:19.683Z,24.52
2022-12-08T04:43:49.170Z,27.05
2022-12-08T04:46:17.308Z,23.85
2022-12-08T04:48:45.526Z,21.42
2022-12-08T04:51:16.533Z,28.35
2022-12-08T04:53:46.746Z,27.35
2022-12-08T04:56:15.985Z,26.25
2022-12-08T04:58:44.133Z,25.55
2022-12-08T05:01:14.073Z,21.42
2022-12-08T05:03:42.492Z,25.02
2022-12-08T05:06:12.245Z,26.65
2022-12-08T05:08:40.379Z,21.52
2022-12-08T05:11:10.927Z,24.95
2022-12-08T05:13:39.336Z,27.75
2022-12-08T05:16:10.007Z,26.33
2022-12-08T05:18:40.741Z,29.02
2022-12-08T05:21:09.800Z,29.65
2022-12-08T05:23:37.947Z,31.98
2022-12-08T05:26:06.247Z,31.90
2022-12-08T05:28:42.931Z,28.60
2022-12-08T05:31:11.924Z,29.08
2022-12-08T05:33:42.242Z,32.42
2022-12-08T05:36:13.076Z,29.20
2022-12-08T05:38:41.611Z,32.03
2022-12-08T05:41:10.461Z,35.72
2022-12-08T05:43:38.591Z,34.22
2022-12-08T05:46:07.223Z,31.77
2022-12-08T05:48:35.422Z,35.50
2022-12-08T05:51:05.081Z,39.60
2022-12-08T05:53:33.170Z,34.28
2022-12-08T05:56:01.303Z,28.52
2022-12-08T05:58:29.376Z,29.80
2022-12-08T06:00:57.492Z,34.15
2022-12-08T06:03:25.711Z,33.72
2022-12-08T06:05:53.894Z,34.63
2022-12-08T06:08:23.502Z,31.70
2022-12-08T06:10:51.908Z,32.40
2022-12-08T06:13:20.110Z,28.73
2022-12-08T06:15:48.470Z,37.88
2022-12-08T06:18:16.542Z,36.83
2022-12-08T06:20:44.615Z,40.45
2022-12-08T06:23:13.121Z,35.45
2022-12-08T06:25:42.714Z,29.77
2022-12-08T06:28:10.810Z,32.42
2022-12-08T06:30:39.328Z,39.40
2022-12-08T06:33:07.428Z,39.35
2022-12-08T06:35:35.514Z,39.95
2022-12-08T06:38:03.654Z,30.23
2022-12-08T06:40:31.726Z,43.45
2022-12-08T06:43:01.218Z,43.97
2022-12-08T06:45:29.416Z,37.30
2022-12-08T06:47:57.535Z,32.85
2022-12-08T06:50:25.703Z,37.13
2022-12-08T06:53:03.040Z,40.42
2022-12-08T06:55:57.748Z,33.97
2022-12-08T06:58:22.495Z,34.00
2022-12-08T07:00:50.640Z,37.28
2022-12-08T07:03:18.782Z,40.67
2022-12-08T07:05:46.878Z,42.55
2022-12-08T07:08:15.091Z,45.70
2022-12-08T07:10:43.309Z,42.58
2022-12-08T07:13:11.396Z,41.35
2022-12-08T07:15:40.914Z,39.83
2022-12-08T07:18:09.031Z,39.17
2022-12-08T07:20:37.131Z,38.55
2022-12-08T07:23:05.262Z,42.40
2022-12-08T07:25:33.409Z,46.42
2022-12-08T07:28:01.515Z,46.10
2022-12-08T07:30:29.742Z,44.30
2022-12-08T07:32:59.399Z,42.67
2022-12-08T07:35:27.500Z,42.00
2022-12-08T07:37:55.630Z,46.03
2022-12-08T07:40:23.729Z,44.67
2022-12-08T07:42:51.820Z,53.42
2022-12-08T07:45:19.998Z,48.55
2022-12-08T07:47:48.101Z,44.17
2022-12-08T07:50:17.842Z,49.05
2022-12-08T07:52:45.914Z,52.78
2022-12-08T07:55:14.025Z,51.08
2022-12-08T07:57:42.141Z,52.70
2022-12-08T08:00:12.461Z,46.45
2022-12-08T08:02:41.091Z,41.78
2022-12-08T08:05:10.636Z,46.20
2022-12-08T08:07:42.183Z,49.10
2022-12-08T08:10:13.741Z,52.80
2022-12-08T08:12:41.938Z,47.13
2022-12-08T08:15:11.338Z,48.13
2022-12-08T08:17:39.675Z,50.53
2022-12-08T08:20:09.939Z,50.50
2022-12-08T08:22:39.412Z,45.38
2022-12-08T08:25:08.118Z,44.92
2022-12-08T08:27:36.184Z,48.80
2022-12-08T08:30:04.960Z,46.03
2022-12-08T08:32:34.594Z,44.38
2022-12-08T08:35:02.733Z,48.10
2022-12-08T08:37:30.967Z,50.90
2022-12-08T08:40:00.435Z,47.45
2022-12-08T08:42:29.091Z,55.08
2022-12-08T08:44:57.256Z,44.83
2022-12-08T08:47:25.382Z,46.70
2022-12-08T08:49:53.507Z,44.40
2022-12-08T08:52:21.634Z,45.53
2022-12-08T08:54:49.910Z,45.30
2022-12-08T08:57:25.097Z,43.70
2022-12-08T08:59:53.872Z,39.03
2022-12-08T09:02:22.546Z,41.20
2022-12-08T09:04:50.855Z,47.17
2022-12-08T09:07:19.075Z,38.95
2022-12-08T09:09:47.162Z,42.65
2022-12-08T09:12:15.242Z,38.05
2022-12-08T09:14:44.754Z,40.28
2022-12-08T09:17:12.898Z,36.92
2022-12-08T09:19:41.003Z,35.05
2022-12-08T09:22:09.122Z,33.95
2022-12-08T09:24:37.177Z,28.65
2022-12-08T09:27:05.416Z,33.03
2022-12-08T09:29:36.235Z,40.15
2022-12-08T09:32:06.470Z,36.42
2022-12-08T09:34:34.571Z,34.95
2022-12-08T09:37:02.669Z,38.03
2022-12-08T09:39:30.765Z,31.63
2022-12-08T09:42:01.416Z,38.85
2022-12-08T09:44:55.462Z,37.17
2022-12-08T09:47:35.279Z,41.30
2022-12-08T09:50:08.606Z,44.90
2022-12-08T09:52:42.367Z,41.05
2022-12-08T09:55:18.524Z,38.55
2022-12-08T09:57:51.632Z,38.15
2022-12-08T10:00:23.454Z,38.30
2022-12-08T10:02:53.166Z,50.08
2022-12-08T10:05:21.982Z,41.42
2022-12-08T10:07:56.585Z,36.60
2022-12-08T10:10:37.229Z,36.08
2022-12-08T10:13:17.981Z,38.30
2022-12-08T10:15:52.240Z,33.88
2022-12-08T10:18:27.751Z,31.23
2022-12-08T10:21:00.546Z,35.25
2022-12-08T10:26:03.760Z,30.25
2022-12-08T10:28:32.966Z,38.92
2022-12-08T10:31:01.358Z,30.40
2022-12-08T10:33:34.009Z,32.20
2022-12-08T10:36:05.012Z,30.38
2022-12-08T10:38:34.896Z,25.08
2022-12-08T10:41:13.585Z,29.83
2022-12-08T10:43:46.368Z,30.42
2022-12-08T10:48:56.488Z,26.10
2022-12-08T10:51:29.104Z,27.67
2022-12-08T10:53:57.533Z,29.60
2022-12-08T10:56:30.265Z,22.35
2022-12-08T11:01:42.926Z,29.13
2022-12-08T11:04:18.534Z,27.45
2022-12-08T11:06:48.021Z,23.98
2022-12-08T11:09:35.384Z,25.35
2022-12-08T11:12:09.282Z,25.42
2022-12-08T11:14:49.146Z,26.98
2022-12-08T11:17:19.203Z,20.38
2022-12-08T11:20:02.670Z,19.35
2022-12-08T11:22:33.478Z,21.73
2022-12-08T11:25:04.146Z,18.73
2022-12-08T11:27:34.861Z,19.67
2022-12-08T11:30:04.189Z,22.15
2022-12-08T11:32:34.834Z,21.80
2022-12-08T11:35:07.747Z,21.58
2022-12-08T11:37:40.325Z,23.77
2022-12-08T11:40:19.407Z,25.35
2022-12-08T11:42:57.552Z,25.65
2022-12-08T11:45:29.765Z,25.50
2022-12-08T11:48:06.782Z,24.65
2022-12-08T11:50:44.593Z,24.35
2022-12-08T11:53:19.549Z,25.58
2022-12-08T11:55:53.519Z,27.85
2022-12-08T11:58:27.937Z,22.70
2022-12-08T12:00:56.092Z,23.05
2022-12-08T12:03:32.461Z,22.30
2022-12-08T12:09:12.537Z,23.75
2022-12-08T12:12:06.892Z,20.08
2022-12-08T12:14:58.754Z,23.10
2022-12-08T12:17:39.326Z,20.17
2022-12-08T12:20:17.594Z,24.67
2022-12-08T12:22:50.732Z,19.40
2022-12-08T12:25:23.757Z,23.83
2022-12-08T12:27:57.164Z,20.02
2022-12-08T12:30:27.921Z,22.73
2022-12-08T12:32:58.352Z,24.80
2022-12-08T12:35:34.941Z,23.60
2022-12-08T12:38:28.712Z,22.90
2022-12-08T12:41:02.522Z,22.48
2022-12-08T12:43:33.644Z,26.05
2022-12-08T12:46:50.142Z,26.05
2022-12-08T12:49:55.246Z,21.02
2022-12-08T12:52:46.123Z,25.35
2022-12-08T12:55:52.906Z,29.63
2022-12-08T12:58:40.900Z,24.55
2022-12-08T13:01:46.458Z,26.23
2022-12-08T13:04:16.372Z,32.95
2022-12-08T13:06:47.149Z,23.50
2022-12-08T13:09:30.408Z,26.77
2022-12-08T13:12:02.578Z,24.10
2022-12-08T13:14:33.874Z,29.38
2022-12-08T13:17:05.658Z,25.73
2022-12-08T13:19:34.944Z,22.70
2022-12-08T13:22:03.084Z,21.13
2022-12-08T13:24:36.610Z,20.50
2022-12-08T13:27:33.974Z,24.55
2022-12-08T13:30:42.770Z,24.73
2022-12-08T13:33:19.560Z,17.77
2022-12-08T13:36:02.143Z,23.30
2022-12-08T13:38:34.054Z,19.50
2022-12-08T13:41:04.842Z,21.40
2022-12-08T13:43:52.464Z,17.02
2022-12-08T13:56:37.422Z,27.42
2022-12-08T13:58:18.359Z,27.17
2022-12-08T14:00:58.854Z,29.77
2022-12-08T14:03:27.226Z,30.30
2022-12-08T14:06:12.230Z,29.13
2022-12-08T14:09:05.063Z,32.67
2022-12-08T14:11:36.460Z,34.20
2022-12-08T14:14:07.926Z,30.75
2022-12-08T14:16:41.178Z,33.45
2022-12-08T14:19:19.204Z,35.05
2022-12-08T14:21:58.471Z,28.67
2022-12-08T14:24:27.811Z,34.17
2022-12-08T14:26:59.185Z,34.15
2022-12-08T14:29:40.703Z,30.98
2022-12-08T14:32:22.572Z,29.10
2022-12-08T14:35:00.553Z,30.88
2022-12-08T14:37:31.270Z,25.17
2022-12-08T14:40:02.671Z,21.25
2022-12-08T14:42:31.489Z,25.63
2022-12-08T14:45:02.882Z,25.98
2022-12-08T14:47:34.723Z,34.38
2022-12-08T14:50:05.619Z,32.17
2022-12-08T14:52:34.052Z,29.30
2022-12-08T14:55:02.170Z,32.42
2022-12-08T14:57:36.483Z,33.55
2022-12-08T15:00:12.451Z,29.25
2022-12-08T15:02:47.880Z,29.52
2022-12-08T15:05:19.203Z,35.97
2022-12-08T15:07:50.559Z,32.35
2022-12-08T15:10:27.751Z,30.50
2022-12-08T15:13:05.988Z,34.80
2022-12-08T15:15:47.977Z,37.45
2022-12-08T15:18:19.960Z,33.27
2022-12-08T15:20:51.666Z,40.83
2022-12-08T15:23:26.855Z,38.58
2022-12-08T15:25:58.425Z,34.45
2022-12-08T15:28:30.450Z,36.47
2022-12-08T15:30:59.537Z,33.38
2022-12-08T15:33:29.251Z,33.70
2022-12-08T15:35:57.377Z,33.33
2022-12-08T15:38:27.721Z,38.97
2022-12-08T15:40:57.645Z,29.08
2022-12-08T15:43:26.029Z,26.83
2022-12-08T15:45:59.500Z,29.73
2022-12-08T15:48:31.332Z,34.17
2022-12-08T15:50:59.599Z,31.30
2022-12-08T15:53:27.996Z,33.75
2022-12-08T15:58:54.011Z,30.45
2022-12-08T16:01:23.346Z,27.60
2022-12-08T16:07:20.177Z,36.13
2022-12-08T16:09:33.862Z,32.38
2022-12-08T16:12:20.200Z,34.28
2022-12-08T16:17:37.197Z,29.27
2022-12-08T16:20:12.475Z,28.55
2022-12-08T16:25:46.250Z,30.02
2022-12-08T16:28:52.305Z,24.45
2022-12-08T16:31:13.015Z,28.00
2022-12-08T16:33:42.270Z,27.65
2022-12-08T16:36:12.439Z,23.65
2022-12-08T16:38:40.722Z,25.25
2022-12-08T16:41:32.476Z,24.25
2022-12-08T16:44:03.377Z,25.92
2022-12-08T16:46:32.551Z,27.58
2022-12-08T16:49:00.750Z,24.00
2022-12-08T16:51:30.502Z,21.10
2022-12-08T16:53:59.179Z,21.60
2022-12-08T16:56:32.764Z,24.52
2022-12-08T16:59:02.161Z,22.10
2022-12-08T17:01:30.610Z,24.60
2022-12-08T17:04:29.773Z,27.77
2022-12-08T17:06:50.671Z,24.63
